Time;durP1;ratioP1;P1;durP2;ratioP2;P2;SDS_P1;SDS_P2;PMS_P1;PMS_P2;Temp;Humidity;BMP_temperature;BMP_pressure;BME280_temperature;BME280_humidity;BME280_pressure;Samples;Min_cycle;Max_cycle;Signal;HPM_P1;HPM_P2
2021/06/24 09:03:28;;;;;;;41.80;7.15;;;;;;;29.68;82.04;100806.39;1627281;86;21509;-92
2021/06/24 09:06:04;;;;;;;35.45;6.60;;;;;;;29.88;66.16;100810.79;1635611;84;21662;-92
2021/06/24 09:08:53;;;;;;;38.67;6.80;;;;;;;29.98;64.86;100810.73;1646223;85;21093;-92
2021/06/24 09:11:22;;;;;;;33.08;6.55;;;;;;;30.09;68.24;100805.81;1649196;84;21085;-89
2021/06/24 09:14:15;;;;;;;42.20;8.28;;;;;;;30.28;64.79;100804.26;1672322;84;21311;-90
2021/06/24 09:16:43;;;;;;;27.47;6.83;;;;;;;30.43;69.89;100800.48;1651033;84;21095;-88
2021/06/24 09:19:29;;;;;;;41.98;7.03;;;;;;;30.64;67.70;100801.66;1649829;84;21145;-88
2021/06/24 09:22:01;;;;;;;37.67;6.95;;;;;;;30.78;62.94;100810.20;1614966;84;21122;-88
2021/06/24 09:24:40;;;;;;;36.35;6.20;;;;;;;30.89;58.70;100806.32;1635332;84;21155;-88
2021/06/24 09:27:27;;;;;;;36.40;7.30;;;;;;;30.95;60.22;100798.06;1621728;84;21813;-88
2021/06/24 09:30:11;;;;;;;30.90;6.33;;;;;;;31.00;58.31;100808.08;1676971;84;21465;-88
2021/06/24 09:32:43;;;;;;;29.42;6.20;;;;;;;30.96;59.75;100809.64;1651339;85;21097;-89
2021/06/24 09:35:24;;;;;;;23.73;5.58;;;;;;;30.98;60.78;100804.81;1640029;84;21116;-89
2021/06/24 09:38:06;;;;;;;41.28;6.10;;;;;;;31.06;66.47;100811.11;1641597;84;21230;-88
2021/06/24 09:40:53;;;;;;;28.40;6.85;;;;;;;31.17;62.87;100816.66;1645285;83;21303;-88
2021/06/24 09:43:31;;;;;;;27.40;5.65;;;;;;;31.20;56.59;100821.55;1647894;84;21049;-90
2021/06/24 09:46:09;;;;;;;27.95;5.75;;;;;;;31.20;59.72;100816.98;1691192;83;21017;-89
2021/06/24 09:48:58;;;;;;;34.08;6.65;;;;;;;31.19;59.12;100816.69;1644816;83;21764;-88
2021/06/24 09:51:34;;;;;;;28.20;6.62;;;;;;;31.23;62.02;100817.84;1677344;84;21105;-88
2021/06/24 09:54:15;;;;;;;36.00;7.53;;;;;;;31.26;58.65;100824.05;1633152;85;21111;-88
2021/06/24 09:56:52;;;;;;;39.67;7.45;;;;;;;31.24;59.24;100819.98;1642968;84;21120;-88
2021/06/24 09:59:19;;;;;;;25.10;7.15;;;;;;;31.23;62.86;100817.84;1663375;84;21155;-88
2021/06/24 10:01:56;;;;;;;35.55;7.83;;;;;;;31.28;62.23;100827.84;1648518;84;21076;-89
2021/06/24 10:04:32;;;;;;;42.35;7.30;;;;;;;31.32;64.19;100828.97;1643900;85;21109;-88
2021/06/24 10:07:04;;;;;;;42.67;6.47;;;;;;;31.31;65.34;100825.47;1624402;84;21127;-88
2021/06/24 10:23:28;;;;;;;30.55;6.15;;;;;;;30.76;68.61;100834.34;1841794;75;22597;-89
2021/06/24 10:25:57;;;;;;;23.10;5.90;;;;;;;30.66;67.68;100834.98;1823415;77;20985;-89
2021/06/24 10:28:24;;;;;;;47.38;10.00;;;;;;;30.57;64.27;100839.96;1793957;77;20922;-89
2021/06/24 10:30:51;;;;;;;33.42;7.37;;;;;;;30.49;68.02;100839.79;1815535;77;21467;-88
2021/06/24 10:33:21;;;;;;;22.90;6.25;;;;;;;30.48;65.98;100849.45;1790941;78;21077;-89
2021/06/24 10:35:52;;;;;;;30.15;6.05;;;;;;;30.50;66.22;100848.14;1802115;79;22318;-89
2021/06/24 10:38:23;;;;;;;30.77;5.58;;;;;;;30.53;64.22;100846.35;1773055;78;21013;-89
2021/06/24 10:41:02;;;;;;;35.08;6.05;;;;;;;30.55;64.31;100849.33;1775817;79;21005;-92
2021/06/24 10:43:49;;;;;;;17.80;5.70;;;;;;;30.53;60.35;100839.64;1743673;79;20927;-90
2021/06/24 10:46:25;;;;;;;20.30;6.12;;;;;;;30.52;65.52;100848.75;1756029;79;21834;-93
2021/06/24 10:48:49;;;;;;;23.65;5.47;;;;;;;30.52;66.59;100856.80;1736913;81;20991;-91
2021/06/24 10:51:16;;;;;;;27.20;5.55;;;;;;;30.53;70.83;100843.66;1755614;79;21021;-91
2021/06/24 10:53:50;;;;;;;20.65;6.00;;;;;;;30.62;72.44;100852.12;1774650;79;21516;-92
2021/06/24 10:56:33;;;;;;;24.32;5.58;;;;;;;30.68;72.63;100851.69;1799483;79;21069;-88
2021/06/24 10:59:05;;;;;;;15.75;5.40;;;;;;;30.76;79.54;100847.78;1768945;79;21417;-92
2021/06/24 11:01:47;;;;;;;22.45;6.15;;;;;;;30.82;76.41;100847.59;1797000;79;20997;-92
2021/06/24 11:04:37;;;;;;;27.15;5.80;;;;;;;30.89;80.06;100852.02;1768940;79;21067;-92
2021/06/24 11:07:19;;;;;;;23.18;5.37;;;;;;;30.97;81.32;100858.29;1769286;79;21096;-88
2021/06/24 11:10:16;;;;;;;28.38;5.60;;;;;;;31.08;83.48;100853.90;1768034;79;21594;-90
2021/06/24 11:12:52;;;;;;;26.52;5.85;;;;;;;31.15;80.19;100860.75;1759466;80;21040;-89
2021/06/24 11:15:47;;;;;;;28.17;5.40;;;;;;;31.26;84.78;100862.24;1756477;79;21607;-89
2021/06/24 11:18:37;;;;;;;13.20;5.40;;;;;;;31.35;80.14;100870.69;1813431;77;21005;-90
2021/06/24 11:21:14;;;;;;;21.05;5.15;;;;;;;31.44;74.24;100865.16;1765772;80;21207;-92
2021/06/24 11:23:55;;;;;;;22.58;5.08;;;;;;;31.54;69.83;100870.68;1808756;77;21080;-89
2021/06/24 11:26:29;;;;;;;16.95;4.78;;;;;;;31.60;62.13;100869.67;1791767;78;20994;-88
2021/06/24 11:29:11;;;;;;;15.78;4.90;;;;;;;31.64;59.00;100867.29;1753701;80;21027;-88
2021/06/24 11:31:53;;;;;;;20.27;4.97;;;;;;;31.56;62.22;100876.63;1792638;79;21029;-89
2021/06/24 11:37:14;;;;;;;24.07;4.78;;;;;;;31.34;73.27;100867.70;1759693;80;21050;-87
2021/06/24 11:40:00;;;;;;;27.27;5.33;;;;;;;31.24;71.09;100869.22;1775729;80;21497;-88
2021/06/24 11:42:36;;;;;;;27.77;5.22;;;;;;;31.10;67.96;100878.16;1762632;79;21097;-86
2021/06/24 11:45:01;;;;;;;23.62;5.70;;;;;;;30.93;70.61;100876.78;1771644;79;20985;-85
2021/06/24 11:47:34;;;;;;;23.73;4.78;;;;;;;30.81;74.68;100874.73;1791251;78;21093;-85
2021/06/24 12:04:20;;;;;;;26.70;5.55;;;;;;;30.00;91.76;100881.09;1776965;79;20986;-87
2021/06/24 12:06:59;;;;;;;18.07;4.80;;;;;;;29.93;87.15;100893.81;1780224;79;21029;-87
2021/06/24 12:09:52;;;;;;;22.82;5.75;;;;;;;29.84;81.43;100898.22;1817164;78;20994;-86
2021/06/24 12:12:24;;;;;;;36.73;6.03;;;;;;;29.74;79.44;100899.34;1783588;78;21483;-92
2021/06/24 12:14:57;;;;;;;22.45;5.03;;;;;;;29.65;89.49;100911.48;1815439;78;20954;-92
2021/06/24 12:17:29;;;;;;;22.67;5.42;;;;;;;29.60;89.95;100908.16;1792446;79;21388;-92
2021/06/24 12:20:19;;;;;;;29.70;5.75;;;;;;;29.57;93.25;100904.09;1758939;80;21075;-86
2021/06/24 12:22:52;;;;;;;22.90;5.67;;;;;;;29.57;91.89;100901.41;1764341;80;21010;-87
2021/06/24 12:25:26;;;;;;;30.95;7.03;;;;;;;29.55;93.70;100896.80;1796011;78;21667;-89
2021/06/24 12:28:01;;;;;;;37.13;5.53;;;;;;;29.50;91.28;100903.41;1795715;78;21037;-90
2021/06/24 12:30:41;;;;;;;37.93;7.08;;;;;;;29.43;88.52;100908.08;1794293;78;21040;-93
2021/06/24 12:33:11;;;;;;;33.55;6.37;;;;;;;29.31;91.48;100908.56;1794610;78;20987;-87
2021/06/24 12:35:43;;;;;;;52.67;7.40;;;;;;;29.16;94.83;100912.53;1765758;79;21086;-87
2021/06/24 12:38:24;;;;;;;;;;;;;;;;;;;;;
2021/06/24 12:40:59;;;;;;;32.48;6.80;;;;;;;28.86;100.00;100914.77;1692198;84;21174;-89
2021/06/24 12:43:30;;;;;;;27.93;6.35;;;;;;;28.75;100.00;100912.88;1755771;80;21488;-90
2021/06/24 12:46:01;;;;;;;23.75;6.83;;;;;;;28.67;100.00;100913.17;1768681;79;21037;-90
2021/06/24 12:48:36;;;;;;;34.33;6.85;;;;;;;28.59;100.00;100912.46;1822491;77;21006;-88
2021/06/24 12:51:22;;;;;;;39.23;6.50;;;;;;;28.51;100.00;100906.09;1795742;78;21050;-88
2021/06/24 12:53:58;;;;;;;37.10;5.80;;;;;;;28.46;100.00;100909.98;1750942;80;21144;-91
2021/06/24 12:56:34;;;;;;;22.52;5.37;;;;;;;28.39;100.00;100914.08;1809280;78;21312;-91
2021/06/24 12:59:22;;;;;;;33.48;5.72;;;;;;;28.37;100.00;100914.02;1753240;80;21053;-93
2021/06/24 13:01:52;;;;;;;32.10;6.80;;;;;;;28.36;100.00;100908.37;1802743;79;21488;-90
2021/06/24 13:04:30;;;;;;;25.55;7.37;;;;;;;28.37;100.00;100910.00;1799168;78;21286;-90
2021/06/24 13:07:03;;;;;;;37.50;7.58;;;;;;;28.36;100.00;100907.03;1814772;78;22152;-88
2021/06/24 13:09:43;;;;;;;28.65;7.08;;;;;;;28.32;100.00;100902.12;1803508;78;21291;-90
2021/06/24 13:12:11;;;;;;;37.65;7.70;;;;;;;28.31;100.00;100903.19;1813677;78;21553;-89
2021/06/24 13:14:47;;;;;;;60.35;9.98;;;;;;;28.33;100.00;100905.09;1821860;77;20942;-91
2021/06/24 13:17:16;;;;;;;47.30;9.10;;;;;;;28.32;100.00;100903.98;1788949;80;21039;-92
2021/06/24 13:19:54;;;;;;;36.45;8.20;;;;;;;28.30;100.00;100902.05;1762864;80;21132;-90
2021/06/24 13:22:26;;;;;;;33.00;7.55;;;;;;;28.30;100.00;100904.73;1759569;79;21004;-88
2021/06/24 13:25:04;;;;;;;31.95;8.23;;;;;;;28.31;100.00;100899.17;1789015;80;20865;-87
2021/06/24 13:27:38;;;;;;;36.13;8.55;;;;;;;28.36;100.00;100897.66;1790352;78;20982;-93
2021/06/24 13:30:15;;;;;;;26.77;7.72;;;;;;;28.38;100.00;100891.56;1781906;79;21062;-87
2021/06/24 13:32:49;;;;;;;30.32;8.93;;;;;;;28.37;100.00;100891.27;1792026;80;21152;-91
2021/06/24 13:35:27;;;;;;;29.52;7.65;;;;;;;28.37;100.00;100898.76;1829482;77;21540;-91
2021/06/24 13:38:13;;;;;;;22.85;6.78;;;;;;;28.37;100.00;100899.30;1787081;78;21564;-91
2021/06/24 13:40:45;;;;;;;26.50;6.60;;;;;;;28.32;100.00;100884.71;1813044;77;20998;-90
2021/06/24 13:43:28;;;;;;;22.45;5.80;;;;;;;28.32;100.00;100881.23;1760118;80;21064;-89
2021/06/24 13:45:58;;;;;;;18.15;6.80;;;;;;;28.36;100.00;100890.97;1768279;79;21069;-86
2021/06/24 13:48:26;;;;;;;28.65;8.15;;;;;;;28.39;100.00;100887.84;1770749;79;21000;-90
2021/06/24 13:50:58;;;;;;;28.95;9.18;;;;;;;28.39;100.00;100892.66;1762619;79;21008;-89
2021/06/24 13:53:25;;;;;;;20.77;7.92;;;;;;;28.33;100.00;100897.59;1766697;78;20981;-90
2021/06/24 13:55:53;;;;;;;34.43;8.70;;;;;;;28.26;100.00;100896.34;1788758;78;21038;-92
2021/06/24 13:58:21;;;;;;;32.63;7.70;;;;;;;28.20;100.00;100893.77;1766872;78;21167;-90
2021/06/24 14:00:52;;;;;;;31.10;7.90;;;;;;;28.14;100.00;100886.12;1783533;77;20982;-90
2021/06/24 14:03:20;;;;;;;33.25;7.55;;;;;;;28.10;100.00;100921.05;1805988;78;21017;-92
2021/06/24 14:05:47;;;;;;;27.90;8.13;;;;;;;28.06;100.00;100917.17;1793070;78;21108;-88
2021/06/24 14:08:14;;;;;;;41.18;9.08;;;;;;;28.02;100.00;100904.77;1819878;78;21468;-91
2021/06/24 14:10:41;;;;;;;26.02;7.55;;;;;;;27.96;100.00;100901.13;1792403;78;21063;-91
2021/06/24 14:13:10;;;;;;;34.10;7.95;;;;;;;27.89;100.00;100904.40;1785882;78;21042;-89
2021/06/24 14:15:37;;;;;;;24.05;7.20;;;;;;;27.79;100.00;100906.27;1793666;79;21092;-88
2021/06/24 14:18:04;;;;;;;29.07;6.90;;;;;;;27.68;100.00;100901.12;1800595;77;21028;-87
2021/06/24 14:20:33;;;;;;;28.92;6.92;;;;;;;27.63;100.00;100906.33;1751259;80;21161;-92
2021/06/24 14:23:00;;;;;;;31.70;8.20;;;;;;;27.58;100.00;100915.55;1803517;77;21076;-91
2021/06/24 14:25:27;;;;;;;26.17;6.62;;;;;;;27.51;100.00;100913.46;1755148;80;21030;-89
2021/06/24 14:27:54;;;;;;;27.82;6.50;;;;;;;27.46;100.00;100909.28;1808146;77;21094;-91
2021/06/24 14:30:22;;;;;;;27.02;6.33;;;;;;;27.44;100.00;100913.52;1798086;78;21549;-92
2021/06/24 14:32:49;;;;;;;22.70;6.62;;;;;;;27.45;100.00;100901.78;1798538;78;20953;-88
2021/06/24 14:35:17;;;;;;;20.77;7.10;;;;;;;27.46;100.00;100901.25;1795490;79;21057;-89
2021/06/24 14:37:45;;;;;;;45.90;7.42;;;;;;;27.44;100.00;100899.34;1793352;78;21076;-89
2021/06/24 14:40:13;;;;;;;27.32;6.40;;;;;;;27.44;100.00;100904.69;1758551;80;21006;-90
2021/06/24 14:42:40;;;;;;;39.03;6.40;;;;;;;27.45;100.00;100910.31;1769235;78;20977;-90
2021/06/24 14:45:09;;;;;;;41.50;8.83;;;;;;;27.47;100.00;100906.91;1745551;80;21136;-88
2021/06/24 14:47:36;;;;;;;36.35;7.97;;;;;;;27.46;100.00;100902.09;1805574;77;21052;-90
2021/06/24 14:50:04;;;;;;;34.80;8.05;;;;;;;27.47;100.00;100906.91;1756694;80;21080;-85
2021/06/24 14:52:31;;;;;;;32.85;7.28;;;;;;;27.47;100.00;100908.24;1764568;80;21020;-86
2021/06/24 14:55:00;;;;;;;33.40;7.03;;;;;;;27.45;100.00;100908.47;1769916;78;21507;-88
2021/06/24 14:57:27;;;;;;;18.80;5.42;;;;;;;27.42;100.00;100901.38;1783349;78;21052;-91
2021/06/24 14:59:54;;;;;;;22.02;5.97;;;;;;;27.39;100.00;100900.78;1764480;80;21072;-91
2021/06/24 15:02:22;;;;;;;24.63;6.85;;;;;;;27.40;100.00;100907.77;1741527;81;21231;-89
2021/06/24 15:04:49;;;;;;;24.30;5.50;;;;;;;27.39;100.00;100891.95;1805465;78;20993;-96
2021/06/24 15:07:16;;;;;;;35.85;6.25;;;;;;;27.34;100.00;100903.30;1744577;80;21059;-92
2021/06/24 15:09:43;;;;;;;31.15;5.58;;;;;;;27.29;100.00;100897.78;1813352;77;21480;-88
2021/06/24 15:12:10;;;;;;;15.30;4.90;;;;;;;27.24;100.00;100913.67;1772535;79;21388;-88
2021/06/24 15:14:40;;;;;;;25.05;5.83;;;;;;;27.22;100.00;100915.73;1821470;77;20985;-90
2021/06/24 15:17:08;;;;;;;25.82;6.70;;;;;;;27.21;100.00;100918.11;1799725;78;20995;-86
2021/06/24 15:19:37;;;;;;;22.85;6.33;;;;;;;27.18;100.00;100915.89;1824653;77;21048;-89
2021/06/24 15:22:07;;;;;;;20.30;6.85;;;;;;;27.16;100.00;100927.31;1796131;78;21001;-90
2021/06/24 15:24:35;;;;;;;41.98;7.70;;;;;;;27.10;100.00;100920.17;1775008;77;21087;-93
2021/06/24 15:27:04;;;;;;;39.75;7.62;;;;;;;27.04;100.00;100911.97;1826927;78;20914;-86
2021/06/24 15:29:32;;;;;;;42.85;8.68;;;;;;;27.04;100.00;100913.31;1757396;80;21485;-91
2021/06/24 15:31:59;;;;;;;38.95;8.43;;;;;;;27.00;100.00;100904.64;1761319;80;21011;-89
2021/06/24 15:34:27;;;;;;;36.60;7.75;;;;;;;26.96;100.00;100900.22;1770817;80;21029;-91
2021/06/24 15:36:54;;;;;;;27.48;8.68;;;;;;;26.93;100.00;100892.13;1770002;78;21304;-90
2021/06/24 15:39:24;;;;;;;31.33;8.43;;;;;;;26.91;100.00;100887.55;1755145;80;21393;-89
2021/06/24 15:41:51;;;;;;;28.92;8.43;;;;;;;26.89;100.00;100891.44;1764825;80;21049;-87
2021/06/24 15:44:18;;;;;;;33.08;9.00;;;;;;;26.86;100.00;100887.36;1765039;80;21073;-89
2021/06/24 15:46:45;;;;;;;36.28;8.85;;;;;;;26.85;100.00;100884.38;1765250;80;21088;-89
2021/06/24 15:49:13;;;;;;;25.32;7.58;;;;;;;26.86;100.00;100889.22;1768587;80;21464;-87
2021/06/24 15:51:40;;;;;;;47.20;9.23;;;;;;;26.86;100.00;100890.03;1771361;80;21131;-87
2021/06/24 15:54:07;;;;;;;34.78;9.60;;;;;;;26.85;100.00;100896.94;1795762;79;21040;-86
2021/06/24 15:56:38;;;;;;;42.43;9.40;;;;;;;26.82;100.00;100884.83;1777910;79;21056;-87
2021/06/24 15:59:05;;;;;;;29.82;8.58;;;;;;;26.79;100.00;100887.92;1816913;77;21147;-90
2021/06/24 16:01:33;;;;;;;28.90;8.85;;;;;;;26.76;100.00;100889.19;1756127;80;21072;-86
2021/06/24 16:04:01;;;;;;;38.25;8.40;;;;;;;26.73;100.00;100892.77;1796630;79;20966;-89
2021/06/24 16:06:29;;;;;;;30.62;8.85;;;;;;;26.70;100.00;100886.52;1755187;80;20999;-87
2021/06/24 16:08:56;;;;;;;34.25;8.45;;;;;;;26.69;100.00;100885.72;1782285;78;21016;-89
2021/06/24 16:11:24;;;;;;;32.63;7.92;;;;;;;26.65;100.00;100881.02;1764158;80;20932;-88
2021/06/24 16:13:52;;;;;;;27.07;7.17;;;;;;;26.61;100.00;100876.09;1787910;79;21106;-89
2021/06/24 16:16:20;;;;;;;24.63;6.90;;;;;;;26.60;100.00;100872.32;1769111;80;21424;-91
2021/06/24 16:18:48;;;;;;;16.87;6.30;;;;;;;26.56;100.00;100867.93;1767258;78;21005;-88
2021/06/24 16:21:18;;;;;;;27.77;6.90;;;;;;;26.50;100.00;100867.96;1768438;79;21053;-90
2021/06/24 16:23:45;;;;;;;22.00;6.87;;;;;;;26.45;100.00;100872.11;1819842;77;21522;-86
2021/06/24 16:26:12;;;;;;;24.55;6.83;;;;;;;26.39;100.00;100878.31;1790925;79;21096;-88
2021/06/24 16:28:40;;;;;;;24.45;5.83;;;;;;;26.34;100.00;100882.13;1791544;79;21022;-87
2021/06/24 16:31:07;;;;;;;26.62;7.22;;;;;;;26.28;100.00;100883.79;1782673;79;21520;-89
2021/06/24 16:33:35;;;;;;;31.05;6.85;;;;;;;26.23;100.00;100883.63;1785110;79;21010;-87
2021/06/24 16:36:04;;;;;;;22.37;5.60;;;;;;;26.17;100.00;100877.80;1802248;79;21030;-88
2021/06/24 16:38:32;;;;;;;76.30;8.28;;;;;;;26.10;100.00;100875.16;1762814;79;21397;-90
2021/06/24 16:41:00;;;;;;;31.65;6.08;;;;;;;26.07;100.00;100882.24;1784832;79;21775;-87
2021/06/24 16:43:27;;;;;;;28.57;6.60;;;;;;;26.10;100.00;100883.69;1784970;80;21060;-89
2021/06/24 16:45:55;;;;;;;23.40;10.28;;;;;;;26.11;100.00;100879.47;1753337;81;21832;-88
2021/06/24 16:48:28;;;;;;;39.38;9.05;;;;;;;26.13;100.00;100880.09;1783340;79;21012;-88
2021/06/24 16:50:57;;;;;;;23.85;7.78;;;;;;;26.16;100.00;100879.36;1780600;79;21086;-87
2021/06/24 16:53:25;;;;;;;36.73;8.98;;;;;;;26.17;100.00;100877.80;1809944;78;21042;-88
2021/06/24 16:55:53;;;;;;;54.27;9.03;;;;;;;26.19;100.00;100880.25;1780529;78;21040;-87
2021/06/24 16:58:20;;;;;;;35.28;8.88;;;;;;;26.20;100.00;100878.70;1825007;78;21065;-90
2021/06/24 17:00:47;;;;;;;26.48;7.80;;;;;;;26.23;100.00;100874.28;1797264;79;21001;-88
2021/06/24 17:03:14;;;;;;;27.37;7.45;;;;;;;26.25;100.00;100872.72;1821252;77;21154;-88
2021/06/24 17:05:41;;;;;;;20.88;6.58;;;;;;;26.26;100.00;100877.03;1799277;78;21090;-92
2021/06/24 17:08:08;;;;;;;34.27;8.28;;;;;;;26.28;100.00;100873.64;1720917;80;21063;-88
2021/06/24 17:10:35;;;;;;;21.42;7.08;;;;;;;26.29;100.00;100860.08;1753533;80;21019;-89
2021/06/24 17:13:04;;;;;;;26.55;7.92;;;;;;;26.30;100.00;100855.58;1790463;79;21064;-91
2021/06/24 17:15:31;;;;;;;45.00;8.40;;;;;;;26.28;100.00;100856.30;1825094;77;22000;-91
2021/06/24 17:18:01;;;;;;;21.50;7.53;;;;;;;26.25;100.00;100850.04;1820597;78;21013;-91
2021/06/24 17:20:28;;;;;;;39.60;7.33;;;;;;;26.21;100.00;100847.51;1790077;79;21082;-90
2021/06/24 17:22:55;;;;;;;32.50;8.13;;;;;;;26.14;100.00;100848.38;1764170;79;21095;-90
2021/06/24 17:25:23;;;;;;;30.80;7.47;;;;;;;26.10;100.00;100841.81;1787127;79;21060;-88
2021/06/24 17:27:50;;;;;;;27.70;7.53;;;;;;;26.07;100.00;100828.88;1735915;79;21960;-88
2021/06/24 17:30:21;;;;;;;23.80;8.58;;;;;;;26.03;100.00;100833.52;1785750;79;20943;-91
2021/06/24 17:32:48;;;;;;;28.12;12.40;;;;;;;25.90;100.00;100829.06;1811914;77;21060;-85
2021/06/24 17:35:16;;;;;;;38.55;9.63;;;;;;;25.78;100.00;100836.91;1831062;77;21087;-88
2021/06/24 17:37:43;;;;;;;31.77;11.10;;;;;;;25.67;100.00;100827.20;1792367;78;22018;-92
2021/06/24 17:40:12;;;;;;;27.52;12.50;;;;;;;25.61;100.00;100826.72;1771322;79;21053;-89
2021/06/24 17:42:44;;;;;;;30.65;11.78;;;;;;;25.54;100.00;100818.42;1828136;77;21071;-87
2021/06/24 17:45:13;;;;;;;27.00;10.58;;;;;;;25.41;100.00;100820.11;1791832;78;21645;-89
2021/06/24 17:47:42;;;;;;;23.25;11.28;;;;;;;25.30;100.00;100822.88;1773048;79;21041;-89
2021/06/24 17:50:13;;;;;;;24.05;10.72;;;;;;;25.16;100.00;100819.41;1825275;77;21028;-90
2021/06/24 17:52:40;;;;;;;23.67;8.80;;;;;;;25.07;100.00;100823.31;1805704;78;21093;-90
2021/06/24 17:55:10;;;;;;;25.17;8.53;;;;;;;24.96;100.00;100832.75;1825888;78;21124;-88
2021/06/24 17:57:39;;;;;;;40.20;9.35;;;;;;;24.87;100.00;100836.64;1796216;78;21109;-92
2021/06/24 18:00:10;;;;;;;40.08;9.60;;;;;;;24.86;100.00;100846.98;1772437;78;21021;-87
2021/06/24 18:02:40;;;;;;;37.63;9.60;;;;;;;24.87;100.00;100853.95;1801297;78;21068;-91
2021/06/24 18:05:10;;;;;;;55.23;10.70;;;;;;;24.89;100.00;100855.38;1798011;77;21777;-91
2021/06/24 18:07:37;;;;;;;53.08;12.50;;;;;;;24.92;100.00;100859.47;1785254;78;20922;-91
2021/06/24 18:10:06;;;;;;;62.73;11.60;;;;;;;24.95;100.00;100864.92;1791998;78;21068;-90
2021/06/24 18:12:34;;;;;;;45.88;10.78;;;;;;;24.97;100.00;100864.18;1785779;79;21846;-88
2021/06/24 18:15:01;;;;;;;25.25;9.45;;;;;;;24.98;100.00;100863.16;1769717;79;21027;-94
2021/06/24 18:17:28;;;;;;;40.33;10.08;;;;;;;24.99;100.00;100864.80;1783781;79;21577;-90
2021/06/24 18:19:55;;;;;;;37.60;10.05;;;;;;;24.99;100.00;100859.48;1773422;79;21065;-85
2021/06/24 18:22:23;;;;;;;31.48;10.00;;;;;;;24.97;100.00;100854.86;1748231;79;21060;-89
2021/06/24 18:24:50;;;;;;;40.12;9.78;;;;;;;24.94;100.00;100853.43;1793303;78;21028;-86
2021/06/24 18:27:18;;;;;;;46.45;10.75;;;;;;;24.89;100.00;100837.26;1787132;78;21190;-91
2021/06/24 18:29:46;;;;;;;41.50;10.28;;;;;;;24.85;100.00;100840.84;1747150;79;21933;-91
2021/06/24 18:32:16;;;;;;;47.30;9.70;;;;;;;24.82;100.00;100833.78;1756496;78;21029;-87
2021/06/24 18:34:42;;;;;;;47.20;10.32;;;;;;;24.81;100.00;100831.61;1719498;81;21104;-90
2021/06/24 18:37:10;;;;;;;56.90;10.23;;;;;;;24.82;100.00;100837.25;1786597;78;21005;-91
2021/06/24 18:39:40;;;;;;;39.25;10.25;;;;;;;24.83;100.00;100837.56;1803080;77;20988;-90
2021/06/24 18:42:08;;;;;;;27.90;9.45;;;;;;;24.85;100.00;100833.35;1783057;78;21107;-89
2021/06/24 18:44:36;;;;;;;28.32;9.43;;;;;;;24.85;100.00;100834.19;1780776;79;21081;-89
2021/06/24 18:47:04;;;;;;;24.95;9.65;;;;;;;24.86;100.00;100830.50;1782861;78;21057;-90
2021/06/24 18:49:31;;;;;;;36.00;10.75;;;;;;;24.86;100.00;100837.16;1815455;77;20976;-90
2021/06/24 18:52:00;;;;;;;30.62;10.58;;;;;;;24.84;100.00;100836.54;1788397;77;21024;-89
2021/06/24 18:54:29;;;;;;;38.25;10.85;;;;;;;24.83;100.00;100843.41;1856762;76;20945;-87
2021/06/24 18:56:58;;;;;;;37.00;12.43;;;;;;;24.80;100.00;100844.61;1803565;78;21005;-87
2021/06/24 18:59:28;;;;;;;29.55;11.68;;;;;;;24.80;100.00;100842.48;1856211;77;21014;-91
2021/06/24 19:01:55;;;;;;;26.27;10.32;;;;;;;24.78;100.00;100845.35;1764760;79;20997;-88
2021/06/24 19:04:22;;;;;;;26.87;10.48;;;;;;;24.71;100.00;100837.35;1762514;80;21536;-89
2021/06/24 19:06:49;;;;;;;23.95;10.60;;;;;;;24.66;100.00;100840.28;1827358;77;21069;-88
2021/06/24 19:09:18;;;;;;;27.22;11.33;;;;;;;24.53;100.00;100834.42;1794916;78;21468;-89
2021/06/24 19:11:47;;;;;;;25.40;11.15;;;;;;;24.48;100.00;100836.36;1735572;81;20974;-90
2021/06/24 19:14:14;;;;;;;32.75;10.75;;;;;;;24.40;100.00;100837.88;1854463;77;21040;-86
2021/06/24 19:16:41;;;;;;;32.38;11.40;;;;;;;24.33;100.00;100837.05;1788414;80;21112;-91
2021/06/24 19:19:08;;;;;;;42.88;11.25;;;;;;;24.28;100.00;100839.50;1788018;79;21029;-91
2021/06/24 19:21:35;;;;;;;38.35;11.45;;;;;;;24.24;100.00;100842.55;1773541;79;21048;-91
2021/06/24 19:24:04;;;;;;;35.83;10.13;;;;;;;24.26;100.00;100846.36;1826826;77;21025;-95
2021/06/24 19:26:31;;;;;;;41.23;10.93;;;;;;;24.29;100.00;100842.48;1769565;79;21034;-89
2021/06/24 19:28:58;;;;;;;35.73;11.18;;;;;;;24.31;100.00;100841.25;1801803;77;21016;-91
2021/06/24 19:31:26;;;;;;;51.83;11.33;;;;;;;24.32;100.00;100839.40;1789775;79;22327;-90
2021/06/24 19:33:53;;;;;;;31.45;12.28;;;;;;;24.31;100.00;100833.27;1849357;76;21446;-89
2021/06/24 19:36:23;;;;;;;22.50;9.28;;;;;;;24.28;100.00;100827.53;1774191;79;21080;-88
2021/06/24 19:38:52;;;;;;;17.25;7.83;;;;;;;24.23;100.00;100831.62;1826763;77;21036;-89
2021/06/24 19:41:22;;;;;;;36.00;9.10;;;;;;;24.18;100.00;100823.41;1837152;77;21029;-89
2021/06/24 19:43:49;;;;;;;24.90;9.70;;;;;;;24.13;100.00;100823.70;1824822;77;21449;-88
2021/06/24 19:46:16;;;;;;;28.00;8.98;;;;;;;24.12;100.00;100825.55;1763628;80;21017;-88
2021/06/24 19:48:43;;;;;;;27.65;8.30;;;;;;;24.11;100.00;100823.91;1773977;78;21103;-85
2021/06/24 19:51:10;;;;;;;23.55;8.25;;;;;;;24.06;100.00;100825.03;1757512;80;21010;-93
2021/06/24 19:53:38;;;;;;;21.73;8.08;;;;;;;23.98;100.00;100818.55;1809891;78;20993;-90
2021/06/24 19:56:06;;;;;;;21.73;9.05;;;;;;;23.87;100.00;100812.75;1758648;79;21035;-91
2021/06/24 19:58:33;;;;;;;25.10;10.25;;;;;;;23.77;100.00;100804.31;1816021;78;21077;-87
2021/06/24 20:01:00;;;;;;;17.50;10.13;;;;;;;23.66;100.00;100804.38;1779296;80;21516;-87
2021/06/24 20:03:27;;;;;;;17.25;10.38;;;;;;;23.53;100.00;100801.14;1776068;79;21041;-89
2021/06/24 20:05:54;;;;;;;25.50;10.85;;;;;;;23.44;100.00;100802.31;1750615;79;21005;-89
2021/06/24 20:08:22;;;;;;;23.02;11.05;;;;;;;23.36;100.00;100795.83;1776062;79;21060;-92
2021/06/24 20:10:49;;;;;;;28.32;12.00;;;;;;;23.28;100.00;100794.17;1775924;79;21538;-89
2021/06/24 20:13:17;;;;;;;27.93;11.50;;;;;;;23.20;100.00;100798.30;1776488;79;21017;-86
2021/06/24 20:15:46;;;;;;;20.25;11.50;;;;;;;23.11;100.00;100794.96;1770568;79;20989;-92
2021/06/24 20:18:14;;;;;;;22.25;11.38;;;;;;;23.04;100.00;100799.37;1793704;79;21069;-88
2021/06/24 20:20:42;;;;;;;24.52;11.50;;;;;;;22.95;100.00;100794.73;1773580;79;21160;-88
2021/06/24 20:23:09;;;;;;;28.62;11.65;;;;;;;22.87;100.00;100799.70;1772966;79;22409;-88
2021/06/24 20:25:41;;;;;;;41.48;11.80;;;;;;;22.83;100.00;100803.73;1767832;79;21096;-90
2021/06/24 20:28:12;;;;;;;31.12;12.03;;;;;;;22.84;100.00;100802.72;1763647;79;20997;-89
2021/06/24 20:30:39;;;;;;;32.05;11.95;;;;;;;22.85;100.00;100803.05;1793397;78;21021;-87
2021/06/24 20:33:08;;;;;;;26.30;12.00;;;;;;;22.87;100.00;100801.51;1793443;78;21681;-91
2021/06/24 20:35:36;;;;;;;31.55;13.13;;;;;;;22.84;100.00;100797.41;1795806;78;21023;-89
2021/06/24 20:38:03;;;;;;;22.45;12.23;;;;;;;22.80;100.00;100799.63;1765475;80;21517;-89
2021/06/24 20:40:31;;;;;;;28.15;12.20;;;;;;;22.81;100.00;100799.95;1793284;78;20949;-94
2021/06/24 20:42:59;;;;;;;27.22;11.95;;;;;;;22.84;100.00;100793.43;1793475;78;21407;-91
2021/06/24 20:45:28;;;;;;;34.67;12.28;;;;;;;22.88;100.00;100793.34;1770989;78;21064;-90
2021/06/24 20:47:56;;;;;;;27.20;11.48;;;;;;;22.92;100.00;100795.95;1765353;80;21002;-90
2021/06/24 20:50:23;;;;;;;26.68;11.30;;;;;;;22.98;100.00;100799.67;1793281;78;21461;-87
2021/06/24 20:52:51;;;;;;;35.35;11.85;;;;;;;23.06;100.00;100806.66;1735344;80;21049;-91
2021/06/24 20:55:19;;;;;;;24.98;11.10;;;;;;;23.08;100.00;100805.96;1767566;78;21020;-88
2021/06/24 20:57:48;;;;;;;22.37;10.28;;;;;;;23.06;100.00;100799.53;1767966;78;21152;-89
2021/06/24 21:00:23;;;;;;;25.37;8.75;;;;;;;22.97;100.00;100797.50;1795801;78;21096;-91
2021/06/24 21:02:50;;;;;;;22.05;9.23;;;;;;;22.86;100.00;100808.67;1790954;79;21060;-85